Time;durP1;ratioP1;P1;durP2;ratioP2;P2;SDS_P1;SDS_P2;PMS_P1;PMS_P2;Temp;Humidity;BMP_temperature;BMP_pressure;BME280_temperature;BME280_humidity;BME280_pressure;Samples;Min_cycle;Max_cycle;Signal;HPM_P1;HPM_P2
2022/01/17 00:01:01;;;;;;;20.17;11.73;;;;;;;4.93;100.00;101763.47;4973507;28;20056;-86
2022/01/17 00:03:28;;;;;;;15.00;9.25;;;;;;;4.90;100.00;101771.13;4975052;28;20057;-85
2022/01/17 00:05:56;;;;;;;13.88;9.02;;;;;;;4.91;100.00;101771.19;4991846;28;20076;-84
2022/01/17 00:08:25;;;;;;;19.77;9.15;;;;;;;4.91;100.00;101765.13;4972932;28;20058;-86
2022/01/17 00:10:53;;;;;;;24.90;9.48;;;;;;;4.93;100.00;101763.47;4960766;28;20054;-84
2022/01/17 00:13:25;;;;;;;14.60;9.27;;;;;;;4.94;100.00;101770.41;4971092;28;23385;-85
2022/01/17 00:15:57;;;;;;;14.05;9.20;;;;;;;4.92;100.00;101774.69;4989640;28;20128;-85
2022/01/17 00:18:30;;;;;;;13.38;8.57;;;;;;;4.91;100.00;101783.28;4970610;28;20620;-85
2022/01/17 00:20:58;;;;;;;18.95;9.07;;;;;;;4.93;100.00;101789.41;4975073;28;20053;-85
2022/01/17 00:23:25;;;;;;;12.05;6.97;;;;;;;4.95;100.00;101803.31;4973537;28;20088;-85
2022/01/17 00:25:52;;;;;;;13.15;7.38;;;;;;;4.97;100.00;101814.63;4966524;28;20064;-86
2022/01/17 00:28:19;;;;;;;8.77;5.40;;;;;;;5.00;100.00;101819.03;4970570;28;20053;-86
2022/01/17 00:30:45;;;;;;;9.18;5.63;;;;;;;5.01;100.00;101819.09;4967887;28;20056;-85
2022/01/17 00:33:12;;;;;;;8.65;5.13;;;;;;;5.05;100.00;101813.16;4959743;28;20649;-85
2022/01/17 00:35:39;;;;;;;15.52;6.55;;;;;;;5.06;100.00;101827.00;4966076;28;20052;-85
2022/01/17 00:38:07;;;;;;;7.75;5.20;;;;;;;5.09;100.00;101837.50;4969005;28;20049;-83
2022/01/17 00:40:34;;;;;;;10.13;4.35;;;;;;;5.10;100.00;101828.91;4971964;28;20073;-83
2022/01/17 00:43:01;;;;;;;7.03;4.63;;;;;;;5.08;100.00;101799.41;4967701;28;20042;-82
2022/01/17 00:45:29;;;;;;;11.65;4.72;;;;;;;5.05;100.00;101805.38;4940679;28;20606;-83
2022/01/17 00:48:00;;;;;;;10.60;4.75;;;;;;;5.01;100.00;101815.63;4958154;28;20129;-83
2022/01/17 00:50:31;;;;;;;9.25;4.80;;;;;;;4.99;100.00;101799.09;4985592;28;20822;-84
2022/01/17 00:53:03;;;;;;;10.57;3.92;;;;;;;4.98;100.00;101808.63;4974718;28;20060;-89
2022/01/17 00:55:32;;;;;;;5.50;3.35;;;;;;;4.97;100.00;101796.47;4971181;28;20081;-85
2022/01/17 00:57:59;;;;;;;13.52;3.97;;;;;;;4.94;100.00;101786.88;4957708;28;20614;-86
2022/01/17 01:00:29;;;;;;;6.78;2.88;;;;;;;4.95;100.00;101805.91;4973694;28;20480;-85
2022/01/17 01:02:58;;;;;;;7.00;2.78;;;;;;;4.95;100.00;101808.50;4955659;28;20485;-86
2022/01/17 01:05:28;;;;;;;6.03;2.83;;;;;;;4.96;100.00;101811.13;4959954;28;20046;-85
2022/01/17 01:07:57;;;;;;;4.60;2.10;;;;;;;4.95;100.00;101803.31;4971077;28;20046;-85
2022/01/17 01:13:07;;;;;;;9.15;2.00;;;;;;;4.93;99.83;101792.88;4978565;28;20051;-84
2022/01/17 01:16:09;;;;;;;4.05;2.10;;;;;;;4.93;96.74;101803.25;4974379;28;20510;-85
2022/01/17 01:19:06;;;;;;;11.10;1.30;;;;;;;4.93;97.21;101798.06;4963935;28;20089;-85
2022/01/17 01:32:35;;;;;;;9.00;1.40;;;;;;;4.94;93.78;101818.00;5002730;28;20042;-85
2022/01/17 01:35:02;;;;;;;7.18;1.42;;;;;;;4.89;94.66;101811.78;4960905;28;20610;-85
2022/01/17 01:37:29;;;;;;;6.75;1.30;;;;;;;4.88;94.90;101812.59;4988255;28;20080;-85
2022/01/17 01:39:56;;;;;;;6.93;1.55;;;;;;;4.86;95.38;101805.59;4984800;28;20072;-84
2022/01/17 01:42:24;;;;;;;3.40;1.10;;;;;;;4.83;96.08;101805.50;4987967;28;20046;-85
2022/01/17 01:44:53;;;;;;;7.20;1.50;;;;;;;4.85;96.68;101806.44;4976601;28;20046;-84
2022/01/17 01:47:25;;;;;;;5.25;1.23;;;;;;;4.80;98.28;101790.72;4990552;28;20130;-85
2022/01/17 01:49:53;;;;;;;10.32;2.33;;;;;;;4.76;99.19;101781.94;5000573;28;20030;-86
2022/01/17 01:52:20;;;;;;;4.53;0.90;;;;;;;4.73;99.76;101800.03;5001744;28;20356;-83
2022/01/17 01:54:49;;;;;;;2.08;0.88;;;;;;;4.66;100.00;101790.25;5010071;28;20030;-85
2022/01/17 01:57:16;;;;;;;9.05;1.83;;;;;;;4.63;100.00;101795.34;5000991;28;20077;-86
2022/01/17 01:59:44;;;;;;;12.23;1.92;;;;;;;4.62;99.41;101798.78;5024397;28;20045;-85
2022/01/17 02:02:10;;;;;;;1.95;0.60;;;;;;;4.64;97.93;101799.69;5022739;28;20115;-83
2022/01/17 02:04:37;;;;;;;4.68;1.33;;;;;;;4.60;96.65;101788.34;5012497;28;20167;-83
2022/01/17 02:07:04;;;;;;;2.10;0.70;;;;;;;4.62;96.58;101781.47;5013207;28;20049;-86
2022/01/17 02:09:30;;;;;;;6.95;0.95;;;;;;;4.61;95.29;101784.91;5007975;28;20487;-86
2022/01/17 02:11:57;;;;;;;12.88;1.15;;;;;;;4.61;94.55;101784.91;5004686;28;20449;-85
2022/01/17 02:14:24;;;;;;;3.72;1.05;;;;;;;4.63;93.49;101806.59;4998895;28;20049;-85
2022/01/17 02:16:52;;;;;;;4.85;1.40;;;;;;;4.66;93.38;101821.38;4979249;28;20137;-84
2022/01/17 02:19:22;;;;;;;5.65;1.10;;;;;;;4.64;92.96;101821.34;4990466;28;20057;-84
2022/01/17 02:21:50;;;;;;;7.32;2.75;;;;;;;4.67;91.31;101809.28;4971985;28;21611;-85
2022/01/17 02:24:21;;;;;;;9.32;1.50;;;;;;;4.68;91.73;101793.78;4978989;28;20745;-85
2022/01/17 02:26:51;;;;;;;5.20;1.65;;;;;;;4.68;90.87;101783.41;4981021;28;20100;-84
2022/01/17 02:29:19;;;;;;;5.80;1.75;;;;;;;4.67;90.53;101783.34;4976572;28;21021;-85
2022/01/17 02:31:48;;;;;;;10.25;1.02;;;;;;;4.68;90.59;101787.72;4956247;28;20058;-84
2022/01/17 02:34:16;;;;;;;4.72;1.50;;;;;;;4.69;90.06;101773.91;4976541;28;20123;-84
2022/01/17 02:36:43;;;;;;;5.68;2.05;;;;;;;4.71;89.30;101767.09;4975444;28;20046;-84
2022/01/17 02:39:09;;;;;;;4.80;1.00;;;;;;;4.69;89.93;101759.22;4997142;28;20822;-84
2022/01/17 02:41:43;;;;;;;12.13;1.73;;;;;;;4.69;90.43;101746.25;4982064;28;20046;-83
2022/01/17 02:44:10;;;;;;;9.57;1.48;;;;;;;4.65;90.93;101739.22;4959612;28;20148;-84
2022/01/17 02:46:37;;;;;;;7.78;1.33;;;;;;;4.65;91.12;101736.63;4995223;28;20137;-85
2022/01/17 02:49:06;;;;;;;9.63;2.03;;;;;;;4.64;91.68;101743.53;4959221;28;20081;-84
2022/01/17 02:51:33;;;;;;;7.70;1.20;;;;;;;4.61;92.41;101752.91;4980547;28;20053;-86
2022/01/17 02:54:00;;;;;;;12.15;1.33;;;;;;;4.62;93.00;101745.19;4982089;28;20513;-84
2022/01/17 02:56:27;;;;;;;9.23;1.88;;;;;;;4.59;93.27;101746.81;4990682;28;20046;-85
2022/01/17 02:58:57;;;;;;;11.48;1.50;;;;;;;4.59;93.55;101772.75;4993527;28;20038;-83
2022/01/17 03:01:42;;;;;;;9.15;2.22;;;;;;;4.56;93.97;101770.94;4987381;28;20046;-85
2022/01/17 03:04:09;;;;;;;7.15;1.33;;;;;;;4.58;93.85;101782.22;4978862;28;20080;-85
2022/01/17 03:06:38;;;;;;;14.10;1.75;;;;;;;4.59;93.42;101781.41;4973380;28;20038;-85
2022/01/17 03:09:10;;;;;;;3.25;0.77;;;;;;;4.57;93.70;101784.75;4939030;28;20073;-84
2022/01/17 03:11:37;;;;;;;8.82;2.22;;;;;;;4.58;93.54;101774.44;4978537;28;20058;-85
2022/01/17 03:14:07;;;;;;;6.57;1.10;;;;;;;4.58;93.53;101761.47;4965563;28;20049;-85
2022/01/17 03:16:35;;;;;;;2.75;0.70;;;;;;;4.55;93.89;101763.06;4976804;28;20053;-85
2022/01/17 03:19:03;;;;;;;7.78;1.52;;;;;;;4.57;93.28;101759.69;4973901;28;20053;-85
2022/01/17 03:21:32;;;;;;;10.45;3.25;;;;;;;4.55;93.89;101766.56;4988717;28;20042;-85
2022/01/17 03:26:40;;;;;;;13.65;2.22;;;;;;;4.55;94.05;101745.81;4975017;28;20049;-84
2022/01/17 03:29:07;;;;;;;9.55;1.63;;;;;;;4.57;93.92;101756.25;4961291;28;20068;-84
2022/01/17 03:31:34;;;;;;;10.13;1.63;;;;;;;4.56;94.11;101770.03;4974748;28;20054;-85
2022/01/17 03:34:02;;;;;;;8.35;1.52;;;;;;;4.54;94.36;101776.88;4955333;28;20053;-85
2022/01/17 03:36:29;;;;;;;5.78;1.40;;;;;;;4.56;94.24;101770.03;4973336;28;20168;-84
2022/01/17 03:38:58;;;;;;;9.82;1.42;;;;;;;4.56;94.04;101775.22;4970624;28;20788;-85
2022/01/17 03:41:28;;;;;;;12.13;2.65;;;;;;;4.55;93.40;101751.00;4961935;28;20049;-85
2022/01/17 03:43:55;;;;;;;10.82;1.83;;;;;;;4.55;93.48;101756.19;4975457;28;20049;-84
2022/01/17 03:46:26;;;;;;;8.45;1.83;;;;;;;4.54;93.65;101758.75;4973661;28;20050;-84
2022/01/17 03:48:53;;;;;;;8.80;0.98;;;;;;;4.52;93.80;101750.88;5000512;28;20054;-84
2022/01/17 03:51:21;;;;;;;8.82;1.50;;;;;;;4.53;93.76;101767.34;4983485;28;20054;-85
2022/01/17 03:53:48;;;;;;;9.27;1.42;;;;;;;4.54;92.97;101735.41;4981453;28;20359;-85
2022/01/17 03:56:16;;;;;;;7.35;1.00;;;;;;;4.56;92.83;101746.69;4967999;28;20071;-85
2022/01/17 03:58:43;;;;;;;7.30;2.05;;;;;;;4.52;93.07;101739.63;4987597;28;20146;-85
2022/01/17 04:01:09;;;;;;;8.40;0.90;;;;;;;4.53;93.31;101736.22;4984915;28;20045;-85
2022/01/17 04:03:36;;;;;;;6.22;0.93;;;;;;;4.55;92.60;101731.94;5006019;28;20049;-85
2022/01/17 04:06:14;;;;;;;10.75;3.50;;;;;;;4.53;92.82;101739.69;4976895;28;20057;-84
2022/01/17 04:08:42;;;;;;;11.07;1.77;;;;;;;4.53;93.19;101739.69;5004979;28;20054;-84
2022/01/17 04:11:09;;;;;;;9.02;1.25;;;;;;;4.52;92.77;101743.09;4987407;28;20846;-86
2022/01/17 04:13:36;;;;;;;9.88;2.42;;;;;;;4.53;93.00;101733.63;4978366;28;20116;-85
2022/01/17 04:16:07;;;;;;;8.10;1.58;;;;;;;4.51;92.53;101732.69;4988239;28;20045;-84
2022/01/17 04:18:35;;;;;;;9.60;1.83;;;;;;;4.53;92.07;101724.13;5005422;28;20089;-84
2022/01/17 04:21:03;;;;;;;8.27;1.63;;;;;;;4.55;92.48;101709.50;5000090;28;20093;-82
2022/01/17 04:23:31;;;;;;;4.35;1.10;;;;;;;4.54;91.70;101718.13;5001159;28;20093;-84
2022/01/17 04:25:58;;;;;;;11.40;1.67;;;;;;;4.53;91.66;101710.28;5002704;28;20049;-82
2022/01/17 04:28:25;;;;;;;6.13;1.10;;;;;;;4.58;91.83;101722.56;4980524;28;20212;-85
2022/01/17 04:30:52;;;;;;;13.57;1.63;;;;;;;4.53;92.14;101728.44;4944942;28;20045;-84
2022/01/17 04:33:20;;;;;;;7.60;1.55;;;;;;;4.54;92.09;101732.81;4964895;28;20161;-84
2022/01/17 04:35:47;;;;;;;5.60;1.10;;;;;;;4.57;91.29;101731.16;4994042;28;20098;-83
2022/01/17 04:38:20;;;;;;;7.68;2.03;;;;;;;4.57;91.20;101735.50;4979709;28;20469;-83
2022/01/17 04:43:55;;;;;;;7.07;1.48;;;;;;;4.56;91.08;101752.78;4959513;28;20042;-83
2022/01/17 04:46:23;;;;;;;9.52;2.10;;;;;;;4.59;90.89;101752.00;4964680;28;20045;-83
2022/01/17 04:48:50;;;;;;;9.85;1.70;;;;;;;4.57;91.42;101762.28;4986907;28;20042;-85
2022/01/17 04:51:17;;;;;;;18.42;5.05;;;;;;;4.58;90.61;101760.59;4973005;28;20054;-86
2022/01/17 04:53:57;;;;;;;5.80;1.27;;;;;;;4.57;90.92;101767.47;4974764;28;20049;-85
2022/01/17 04:56:26;;;;;;;10.10;2.53;;;;;;;4.58;90.27;101766.66;4974057;28;20145;-85
2022/01/17 04:58:53;;;;;;;9.40;1.40;;;;;;;4.60;89.81;101762.41;4978244;28;21693;-84
2022/01/17 05:01:19;;;;;;;11.88;2.45;;;;;;;4.63;89.49;101767.69;4973412;28;20793;-86
2022/01/17 05:03:48;;;;;;;6.50;1.63;;;;;;;4.62;89.39;101768.50;4958642;28;20580;-85
2022/01/17 05:06:15;;;;;;;4.30;1.83;;;;;;;4.64;89.05;101768.56;4991146;28;20127;-86
2022/01/17 05:08:42;;;;;;;8.85;1.40;;;;;;;4.65;88.98;101770.34;4991080;28;20038;-85
2022/01/17 05:11:13;;;;;;;9.55;1.20;;;;;;;4.67;89.21;101765.19;4974700;28;20058;-85
2022/01/17 05:13:46;;;;;;;10.45;1.83;;;;;;;4.63;89.08;101752.13;4990073;28;20061;-84
2022/01/17 05:16:16;;;;;;;10.20;2.15;;;;;;;4.63;89.28;101746.94;4957124;28;20495;-84
2022/01/17 05:21:27;;;;;;;15.75;2.35;;;;;;;4.67;88.67;101757.41;4974193;28;20042;-86
2022/01/17 05:23:58;;;;;;;7.53;2.70;;;;;;;4.66;89.40;101753.06;4975861;28;20054;-86
2022/01/17 05:26:30;;;;;;;9.23;2.00;;;;;;;4.65;89.04;101757.38;4968143;28;20108;-86
2022/01/17 05:28:57;;;;;;;13.70;2.33;;;;;;;4.67;89.27;101763.50;4977587;28;20074;-87
2022/01/17 05:31:39;;;;;;;5.20;2.40;;;;;;;4.65;89.46;101759.97;4966492;28;20133;-86
2022/01/17 05:34:06;;;;;;;11.75;2.42;;;;;;;4.66;89.12;101766.91;4971719;28;20080;-86
2022/01/17 05:36:34;;;;;;;8.75;1.35;;;;;;;4.66;89.43;101763.44;4962046;28;20140;-87
2022/01/17 05:39:03;;;;;;;10.63;1.77;;;;;;;4.67;89.49;101755.72;4977823;28;20088;-86
2022/01/17 05:41:30;;;;;;;12.27;1.55;;;;;;;4.67;89.26;101760.00;4964899;28;20058;-87
2022/01/17 05:43:57;;;;;;;8.88;1.75;;;;;;;4.62;89.71;101758.13;5020240;28;20041;-86
2022/01/17 05:46:36;;;;;;;5.72;1.50;;;;;;;4.66;89.82;101768.63;4983652;28;20120;-84
2022/01/17 05:49:06;;;;;;;8.07;1.33;;;;;;;4.66;89.65;101771.22;5022415;28;20103;-85
2022/01/17 05:51:36;;;;;;;9.45;1.58;;;;;;;4.63;89.30;101754.72;5019502;28;20053;-85
2022/01/17 05:54:04;;;;;;;12.77;1.75;;;;;;;4.64;89.84;101740.03;4975336;28;20547;-86
2022/01/17 05:56:30;;;;;;;11.88;1.95;;;;;;;4.64;89.88;101743.53;4973846;28;20726;-85
2022/01/17 05:58:57;;;;;;;8.07;2.33;;;;;;;4.66;89.26;101728.00;4970826;28;20109;-87
2022/01/17 06:04:19;;;;;;;7.47;2.63;;;;;;;4.64;89.49;101720.19;4964000;28;20048;-86
2022/01/17 06:06:48;;;;;;;6.88;1.48;;;;;;;4.67;89.45;101709.03;4978190;28;20062;-87
2022/01/17 06:09:20;;;;;;;10.90;1.95;;;;;;;4.64;89.82;101721.88;4963518;28;20054;-86
2022/01/17 06:11:49;;;;;;;11.00;1.95;;;;;;;4.66;89.82;101711.56;4986896;28;20073;-86
2022/01/17 06:14:18;;;;;;;8.02;1.70;;;;;;;4.68;89.19;101744.50;4956740;28;20054;-86
2022/01/17 06:16:50;;;;;;;7.10;1.15;;;;;;;4.70;89.46;101749.75;4961627;28;20046;-85
2022/01/17 06:19:29;;;;;;;11.82;1.58;;;;;;;4.68;89.58;101741.91;4990591;28;20049;-85
2022/01/17 06:21:58;;;;;;;8.82;1.38;;;;;;;4.69;89.40;101766.13;4984316;28;20062;-85
2022/01/17 06:27:10;;;;;;;8.02;2.20;;;;;;;4.71;90.06;101785.25;4990784;28;20058;-85
2022/01/17 06:32:32;;;;;;;7.25;1.27;;;;;;;4.74;89.54;101765.44;4994915;28;20058;-85
2022/01/17 06:35:06;;;;;;;10.68;1.80;;;;;;;4.73;90.11;101775.78;4978069;28;20078;-87
2022/01/17 06:37:44;;;;;;;12.73;1.63;;;;;;;4.71;89.93;101774.88;4974321;28;20042;-86
2022/01/17 06:40:14;;;;;;;12.65;2.28;;;;;;;4.72;90.01;101776.59;4975165;28;20046;-87
2022/01/17 06:45:26;;;;;;;8.57;2.05;;;;;;;4.72;90.29;101755.84;4991489;28;20046;-86
2022/01/17 06:47:55;;;;;;;6.65;2.13;;;;;;;4.76;90.29;101749.97;4990692;28;20416;-85
2022/01/17 06:53:06;;;;;;;6.53;1.60;;;;;;;4.73;90.29;101750.75;4962947;28;20034;-86
2022/01/17 06:55:34;;;;;;;7.90;1.70;;;;;;;4.73;90.49;101774.09;4956221;28;20053;-87
2022/01/17 06:58:02;;;;;;;6.47;1.17;;;;;;;4.71;90.75;101793.88;4971451;28;20096;-85
2022/01/17 07:03:20;;;;;;;4.53;1.10;;;;;;;4.71;90.91;101830.19;4976649;28;20562;-87
2022/01/17 07:05:51;;;;;;;10.48;1.63;;;;;;;4.71;91.42;101834.53;4983119;28;20080;-86
2022/01/17 07:08:19;;;;;;;4.47;1.48;;;;;;;4.72;91.32;101851.81;4975614;28;20412;-86
2022/01/17 07:10:46;;;;;;;10.07;1.38;;;;;;;4.73;91.05;101866.56;4956602;28;20096;-86
2022/01/17 07:13:17;;;;;;;13.10;1.98;;;;;;;4.74;91.26;101856.22;4968833;28;20042;-86
2022/01/17 07:15:45;;;;;;;13.57;1.98;;;;;;;4.75;91.09;101832.06;4953254;28;20184;-88
2022/01/17 07:18:14;;;;;;;8.93;3.03;;;;;;;4.76;90.96;101810.50;4977741;28;21071;-87
2022/01/17 07:20:46;;;;;;;12.98;1.65;;;;;;;4.75;91.27;101774.13;4971258;28;20054;-87
2022/01/17 07:23:13;;;;;;;8.00;2.53;;;;;;;4.75;91.07;101758.56;4958761;28;20045;-87
2022/01/17 07:25:40;;;;;;;9.75;1.70;;;;;;;4.75;91.48;101779.31;4957185;28;20497;-86
2022/01/17 07:28:10;;;;;;;6.05;1.30;;;;;;;4.74;92.17;101774.94;4973329;28;20141;-85
2022/01/17 07:33:36;;;;;;;7.93;1.63;;;;;;;4.78;92.12;101777.72;4969147;28;20609;-86
2022/01/17 07:36:04;;;;;;;5.32;1.88;;;;;;;4.75;92.82;101776.72;4957422;28;20116;-86
2022/01/17 07:38:33;;;;;;;9.50;1.90;;;;;;;4.73;93.24;101773.19;4955359;28;20387;-86
2022/01/17 07:41:11;;;;;;;7.90;2.33;;;;;;;4.71;93.52;101754.13;4976241;28;20073;-86
2022/01/17 07:43:48;;;;;;;3.05;1.77;;;;;;;4.68;94.33;101767.84;4971146;28;20054;-86
2022/01/17 07:49:10;;;;;;;8.63;2.63;;;;;;;4.55;96.33;101769.16;4947681;28;20050;-85
2022/01/17 07:51:41;;;;;;;12.85;1.63;;;;;;;4.54;96.94;101771.72;4969041;28;20080;-87
2022/01/17 07:56:58;;;;;;;12.00;2.17;;;;;;;4.55;97.00;101784.72;4975577;28;20177;-86
2022/01/17 07:59:25;;;;;;;9.18;1.63;;;;;;;4.59;96.88;101777.94;4972913;28;20046;-86
2022/01/17 08:01:53;;;;;;;11.43;2.08;;;;;;;4.60;96.54;101777.97;4959479;28;20548;-85
2022/01/17 08:04:29;;;;;;;7.82;1.35;;;;;;;4.62;96.39;101778.03;4970131;28;20061;-83
2022/01/17 08:06:56;;;;;;;7.30;1.73;;;;;;;4.64;96.58;101781.53;4980749;28;20536;-86
2022/01/17 08:09:44;;;;;;;16.58;2.03;;;;;;;4.61;97.19;101791.81;4956262;28;20153;-86
2022/01/17 08:12:19;;;;;;;8.85;1.33;;;;;;;4.58;97.12;101774.44;4980836;28;20054;-85
2022/01/17 08:14:46;;;;;;;7.82;1.83;;;;;;;4.56;97.52;101806.34;4965075;28;20042;-84
2022/01/17 08:17:13;;;;;;;5.45;1.33;;;;;;;4.54;97.54;101795.91;4973056;28;20050;-85
2022/01/17 08:19:47;;;;;;;7.57;2.63;;;;;;;4.55;98.07;101794.19;4964450;28;20231;-85
2022/01/17 08:22:16;;;;;;;5.18;1.33;;;;;;;4.54;98.23;101782.94;4975572;28;20055;-83
2022/01/17 08:24:51;;;;;;;18.92;4.03;;;;;;;4.55;98.57;101789.91;4983719;28;20046;-84
2022/01/17 08:30:19;;;;;;;5.15;1.17;;;;;;;4.56;99.56;101786.50;4987156;23;20054;-86
2022/01/17 08:32:48;;;;;;;9.57;1.40;;;;;;;4.57;100.00;101769.19;4980207;28;20054;-84
2022/01/17 08:35:15;;;;;;;9.80;2.50;;;;;;;4.52;100.00;101776.81;4958503;28;20058;-83
2022/01/17 08:37:41;;;;;;;12.10;1.80;;;;;;;4.44;100.00;101750.63;4963486;28;20046;-84
2022/01/17 08:40:12;;;;;;;7.03;2.33;;;;;;;4.37;100.00;101760.72;4989436;28;20054;-84
2022/01/17 08:42:42;;;;;;;8.98;1.75;;;;;;;4.29;100.00;101752.72;4982744;28;20047;-85
2022/01/17 08:45:14;;;;;;;5.90;1.73;;;;;;;4.29;100.00;101776.91;4995075;28;20093;-84
2022/01/17 08:47:55;;;;;;;13.95;2.55;;;;;;;4.24;100.00;101782.78;4993399;28;20038;-84
2022/01/17 08:50:27;;;;;;;6.03;2.15;;;;;;;4.20;100.00;101805.09;4967760;28;20056;-85
2022/01/17 08:52:54;;;;;;;10.50;2.42;;;;;;;4.21;100.00;101796.50;4947343;28;20206;-83
2022/01/17 08:55:24;;;;;;;11.05;2.40;;;;;;;4.23;100.00;101806.94;4994998;28;20043;-85
2022/01/17 08:58:00;;;;;;;9.82;2.60;;;;;;;4.21;100.00;101812.06;4993874;28;20038;-89
2022/01/17 09:03:13;;;;;;;9.68;2.58;;;;;;;4.20;100.00;101818.06;4963972;28;20054;-86
2022/01/17 09:05:40;;;;;;;6.30;1.98;;;;;;;4.21;100.00;101837.06;4976682;28;20145;-84
2022/01/17 09:10:55;;;;;;;6.68;1.75;;;;;;;4.27;100.00;101834.72;4953543;28;20133;-85
2022/01/17 09:13:30;;;;;;;7.20;2.03;;;;;;;4.30;100.00;101816.66;4947777;28;20117;-85
2022/01/17 09:16:05;;;;;;;7.30;2.25;;;;;;;4.33;100.00;101795.16;4989736;28;20046;-84
2022/01/17 09:18:31;;;;;;;13.13;2.33;;;;;;;4.42;100.00;101783.41;4957880;28;20042;-85
2022/01/17 09:20:58;;;;;;;8.30;2.17;;;;;;;4.47;100.00;101819.84;4971779;28;20045;-84
2022/01/17 09:29:15;;;;;;;7.43;3.15;;;;;;;4.66;100.00;101807.53;4935853;28;20058;-87
2022/01/17 09:31:44;;;;;;;4.93;1.98;;;;;;;4.67;100.00;101788.53;4978776;28;20042;-85
2022/01/17 09:34:17;;;;;;;7.78;2.05;;;;;;;4.72;100.00;101797.34;4980770;28;20035;-85
2022/01/17 09:36:44;;;;;;;5.25;1.88;;;;;;;4.77;100.00;101809.66;4981096;28;20054;-84
2022/01/17 09:39:12;;;;;;;12.05;2.03;;;;;;;4.84;100.00;101830.59;4958315;28;20043;-86
2022/01/17 09:41:39;;;;;;;4.53;1.80;;;;;;;4.92;100.00;101818.78;4953458;28;20058;-86
2022/01/17 09:44:10;;;;;;;7.00;1.88;;;;;;;5.04;100.00;101831.28;4958438;28;20070;-86
2022/01/17 09:46:43;;;;;;;5.38;1.63;;;;;;;5.03;100.00;101819.13;4957248;28;20501;-85
2022/01/17 09:49:22;;;;;;;8.75;2.03;;;;;;;5.08;100.00;101820.16;4936590;28;20304;-85
2022/01/17 09:52:14;;;;;;;5.65;1.63;;;;;;;5.08;100.00;101828.81;4972741;28;20044;-84
2022/01/17 09:54:49;;;;;;;9.23;2.35;;;;;;;5.01;100.00;101829.47;4953838;28;20133;-85
2022/01/17 09:57:20;;;;;;;8.93;2.30;;;;;;;4.99;100.00;101836.31;4968800;28;20062;-86
2022/01/17 09:59:47;;;;;;;6.82;2.15;;;;;;;4.98;100.00;101842.34;4983378;28;20058;-85
2022/01/17 10:02:26;;;;;;;6.22;2.47;;;;;;;4.96;100.00;101852.66;4963467;28;20589;-85
2022/01/17 10:05:02;;;;;;;4.13;2.72;;;;;;;4.96;100.00;101855.25;4969182;28;20461;-87
2022/01/17 10:07:58;;;;;;;4.60;2.30;;;;;;;4.96;100.00;101829.31;4948529;28;20052;-86
2022/01/17 10:10:45;;;;;;;9.70;2.53;;;;;;;4.95;100.00;101832.75;4952818;28;20066;-86
2022/01/17 10:13:34;;;;;;;8.48;2.13;;;;;;;4.94;100.00;101833.56;4955379;28;20050;-84
2022/01/17 10:16:32;;;;;;;9.27;2.58;;;;;;;5.00;100.00;101839.81;4945412;28;20098;-85
2022/01/17 10:19:03;;;;;;;6.45;2.33;;;;;;;5.07;100.00;101841.75;4973700;28;20635;-84
2022/01/17 10:21:42;;;;;;;5.43;2.08;;;;;;;5.15;100.00;101837.72;4972992;28;20047;-85
2022/01/17 10:24:24;;;;;;;7.43;2.72;;;;;;;5.22;100.00;101833.59;4958783;28;20051;-86
2022/01/17 10:27:24;;;;;;;5.68;1.95;;;;;;;5.26;100.00;101838.91;4949099;28;20048;-88
2022/01/17 10:30:24;;;;;;;7.30;1.98;;;;;;;5.31;100.00;101846.88;4951352;28;20063;-86
2022/01/17 10:35:44;;;;;;;;;;;;;;;5.42;100.00;101839.41;4959440;28;20140;-86
2022/01/17 10:38:27;;;;;;;4.28;2.65;;;;;;;5.53;100.00;101855.31;4943682;28;19934;-88
2022/01/17 10:41:01;;;;;;;9.35;2.70;;;;;;;5.59;100.00;101838.22;4963988;28;20504;-85
2022/01/17 10:43:34;;;;;;;5.43;2.13;;;;;;;5.60;100.00;101862.47;4960051;28;20054;-84
2022/01/17 10:46:09;;;;;;;12.07;6.10;;;;;;;5.64;100.00;101866.94;4964436;28;20082;-84
2022/01/17 10:48:56;;;;;;;3.75;1.98;;;;;;;5.68;100.00;101865.31;4943865;28;20039;-86
2022/01/17 10:51:38;;;;;;;13.93;2.67;;;;;;;5.76;100.00;101859.53;4956599;28;20063;-85
2022/01/17 10:54:18;;;;;;;7.00;2.65;;;;;;;5.86;100.00;101858.06;4964599;28;20039;-83
2022/01/17 10:56:57;;;;;;;10.48;2.92;;;;;;;5.88;100.00;101874.59;4951228;28;20393;-85
2022/01/17 10:59:34;;;;;;;8.73;3.72;;;;;;;5.89;100.00;101884.16;4960683;28;20054;-84
2022/01/17 11:02:04;;;;;;;7.18;2.40;;;;;;;5.85;100.00;101884.88;4947657;28;20039;-84
2022/01/17 11:04:41;;;;;;;9.43;3.03;;;;;;;5.83;100.00;101877.88;4974680;28;20066;-83
2022/01/17 11:07:10;;;;;;;12.52;3.10;;;;;;;5.79;100.00;101893.38;4961243;28;20087;-84
2022/01/17 11:09:50;;;;;;;8.07;2.72;;;;;;;5.76;100.00;101900.19;4961760;28;20045;-86
2022/01/17 11:12:21;;;;;;;9.18;4.35;;;;;;;5.77;100.00;101875.97;4948223;28;20221;-84
2022/01/17 11:14:58;;;;;;;11.18;3.05;;;;;;;5.78;100.00;101855.25;4982092;28;20062;-84
2022/01/17 11:17:38;;;;;;;12.07;3.20;;;;;;;5.80;100.00;101847.47;4935229;28;20713;-86
2022/01/17 11:22:52;;;;;;;10.02;2.88;;;;;;;5.80;100.00;101870.88;4963005;28;20038;-88
2022/01/17 11:25:30;;;;;;;11.40;3.30;;;;;;;5.78;100.00;101867.38;4946037;28;20091;-86
2022/01/17 11:28:09;;;;;;;7.22;3.58;;;;;;;5.78;100.00;101869.97;4960756;28;20051;-85
2022/01/17 11:30:40;;;;;;;8.93;3.78;;;;;;;5.75;100.00;101852.56;4920665;28;20977;-85
2022/01/17 11:33:11;;;;;;;12.07;4.97;;;;;;;5.74;100.00;101862.91;4934594;28;20091;-86
2022/01/17 11:35:51;;;;;;;13.05;4.82;;;;;;;5.75;100.00;101855.16;4934184;28;20140;-86
2022/01/17 11:38:28;;;;;;;13.75;4.78;;;;;;;5.78;100.00;101872.56;4921948;28;20056;-84
2022/01/17 11:40:58;;;;;;;13.65;3.35;;;;;;;5.77;100.00;101874.25;4937076;28;20055;-86
2022/01/17 11:43:37;;;;;;;18.55;3.58;;;;;;;5.78;100.00;101864.75;4928720;28;20055;-86
2022/01/17 11:46:19;;;;;;;13.98;3.88;;;;;;;5.77;100.00;101875.97;4931962;28;20158;-84
2022/01/17 11:49:11;;;;;;;11.05;3.70;;;;;;;5.78;100.00;101891.63;4925511;28;20044;-86
2022/01/17 11:51:57;;;;;;;8.38;3.38;;;;;;;5.80;100.00;101886.47;4935796;28;20055;-84
2022/01/17 11:54:31;;;;;;;21.20;4.88;;;;;;;5.82;100.00;101881.34;4936454;28;20058;-85
2022/01/17 11:57:06;;;;;;;11.88;3.38;;;;;;;5.85;100.00;101868.44;4951523;28;20043;-88
2022/01/17 11:59:48;;;;;;;14.45;3.63;;;;;;;5.87;100.00;101862.44;4963989;28;20051;-86
2022/01/17 12:02:41;;;;;;;14.82;4.20;;;;;;;5.88;100.00;101863.31;4934466;28;20123;-86
2022/01/17 12:05:11;;;;;;;12.82;3.75;;;;;;;5.92;100.00;101884.25;4921700;28;20059;-86
2022/01/17 12:07:58;;;;;;;14.35;4.00;;;;;;;5.95;100.00;101879.13;4916787;29;20055;-86
2022/01/17 12:10:37;;;;;;;11.32;3.58;;;;;;;5.94;100.00;101874.78;4934178;28;20062;-86
2022/01/17 12:13:39;;;;;;;14.55;3.03;;;;;;;5.94;100.00;101885.19;4916541;28;20050;-84
2022/01/17 12:16:35;;;;;;;18.50;4.38;;;;;;;6.01;100.00;101885.38;4915569;28;20055;-86
2022/01/17 12:19:03;;;;;;;12.13;2.45;;;;;;;6.02;100.00;101885.41;4928497;28;20055;-86
2022/01/17 12:21:40;;;;;;;18.23;4.55;;;;;;;6.00;100.00;101894.91;4917431;28;20055;-84
2022/01/17 12:24:16;;;;;;;15.27;4.18;;;;;;;6.04;100.00;101916.69;4933924;28;20062;-85
2022/01/17 12:26:57;;;;;;;8.57;3.25;;;;;;;6.08;100.00;101919.41;4914120;29;20052;-86
2022/01/17 12:29:55;;;;;;;15.30;4.45;;;;;;;6.12;100.00;101923.00;4939122;28;20063;-87
2022/01/17 12:32:49;;;;;;;16.95;4.63;;;;;;;6.14;100.00;101921.34;4938194;28;20070;-85
2022/01/17 12:35:26;;;;;;;11.15;3.53;;;;;;;6.16;100.00;101934.38;4948583;28;20125;-86
2022/01/17 12:38:14;;;;;;;12.68;2.63;;;;;;;6.14;100.00;101947.31;4962313;28;20054;-86
2022/01/17 12:40:46;;;;;;;15.38;4.20;;;;;;;6.13;100.00;101958.56;4964128;28;20055;-86
2022/01/17 12:43:25;;;;;;;5.47;1.92;;;;;;;6.16;100.00;101953.44;4974948;28;20081;-87
2022/01/17 12:46:16;;;;;;;10.45;2.85;;;;;;;6.19;100.00;101939.66;4944958;28;20485;-83
2022/01/17 12:48:43;;;;;;;13.70;2.88;;;;;;;6.21;100.00;101938.00;4937953;28;20063;-86
2022/01/17 12:51:11;;;;;;;9.05;3.97;;;;;;;6.21;100.00;101920.66;4939912;28;20137;-84
2022/01/17 12:53:40;;;;;;;8.50;2.45;;;;;;;6.24;100.00;101938.06;4961728;28;20070;-85
2022/01/17 12:56:10;;;;;;;12.02;2.28;;;;;;;6.36;100.00;101937.53;4942300;28;20202;-84